Time;durP1;ratioP1;P1;durP2;ratioP2;P2;SDS_P1;SDS_P2;PMS_P1;PMS_P2;Temp;Humidity;BMP_temperature;BMP_pressure;BME280_temperature;BME280_humidity;BME280_pressure;Samples;Min_cycle;Max_cycle;Signal;HPM_P1;HPM_P2
2023/10/04 00:01:12;;;;;;;;;16.00;13.75;;;;;24.63;34.80;101620.35;110806;1246;54393;-64
2023/10/04 00:03:43;;;;;;;;;15.25;15.00;;;;;24.63;34.82;101616.54;110902;1251;50016;-64
2023/10/04 00:06:10;;;;;;;;;16.25;15.25;;;;;24.64;34.81;101615.59;111134;1244;45858;-65
2023/10/04 00:08:37;;;;;;;;;14.75;13.00;;;;;24.63;34.82;101611.51;111179;1244;57617;-65
2023/10/04 00:11:04;;;;;;;;;14.00;13.00;;;;;24.63;34.79;101610.05;111178;1246;58702;-64
2023/10/04 00:13:33;;;;;;;;;14.00;13.67;;;;;24.62;34.81;101606.17;110867;1249;55847;-63
2023/10/04 00:16:02;;;;;;;;;13.75;13.00;;;;;24.62;34.82;101605.59;111002;1241;49838;-64
2023/10/04 00:18:29;;;;;;;;;14.33;12.33;;;;;24.61;34.82;101606.03;111002;1246;45290;-63
2023/10/04 00:20:55;;;;;;;;;16.50;15.00;;;;;24.60;34.81;101601.58;111008;1244;57510;-63
2023/10/04 00:23:22;;;;;;;;;13.50;13.00;;;;;24.60;34.84;101604.65;111048;1245;59222;-64
2023/10/04 00:25:49;;;;;;;;;16.00;13.00;;;;;24.60;34.85;101603.98;110927;1248;54485;-64
2023/10/04 00:28:17;;;;;;;;;15.25;13.50;;;;;24.59;34.86;101601.40;110723;1246;50641;-66
2023/10/04 00:30:44;;;;;;;;;15.67;15.00;;;;;24.58;34.87;101598.47;110899;1244;46089;-63
2023/10/04 00:33:12;;;;;;;;;13.00;12.25;;;;;24.57;34.86;101596.77;110686;1244;57661;-65
2023/10/04 00:35:40;;;;;;;;;18.67;15.00;;;;;24.57;34.88;101595.89;110826;1245;58360;-64
2023/10/04 00:38:09;;;;;;;;;18.25;14.25;;;;;24.57;34.90;101598.97;110975;1243;54414;-62
2023/10/04 00:40:39;;;;;;;;;15.00;13.75;;;;;24.56;34.90;101601.23;110920;1248;50083;-63
2023/10/04 00:43:07;;;;;;;;;15.75;12.50;;;;;24.55;34.88;101598.95;110709;1245;46650;-63
2023/10/04 00:45:34;;;;;;;;;14.25;13.75;;;;;24.54;34.91;101595.11;110708;1250;57764;-63
2023/10/04 00:48:10;;;;;;;;;15.67;13.00;;;;;24.54;34.92;101595.66;110732;1248;60273;-63
2023/10/04 00:50:38;;;;;;;;;13.00;13.00;;;;;24.55;34.92;101590.14;110797;1247;55025;-63
2023/10/04 00:53:13;;;;;;;;;15.75;14.75;;;;;24.55;34.90;101590.17;110903;1244;50515;-63
2023/10/04 00:55:45;;;;;;;;;14.00;12.75;;;;;24.54;34.90;101584.48;110877;1247;45491;-63
2023/10/04 00:58:14;;;;;;;;;15.00;13.33;;;;;24.54;34.91;101582.15;110992;1247;58039;-63
2023/10/04 01:00:45;;;;;;;;;14.00;13.00;;;;;24.54;34.93;101581.06;111229;1245;58936;-64
2023/10/04 01:03:14;;;;;;;;;16.75;15.00;;;;;24.55;34.92;101580.12;111036;1246;54437;-63
2023/10/04 01:05:47;;;;;;;;;14.75;12.50;;;;;24.53;34.92;101577.02;110874;1248;50204;-62
2023/10/04 01:08:20;;;;;;;;;14.33;13.33;;;;;24.54;34.92;101576.28;110812;1241;45370;-63
2023/10/04 01:10:49;;;;;;;;;15.00;13.75;;;;;24.54;34.93;101579.08;110853;1248;58049;-63
2023/10/04 01:13:26;;;;;;;;;18.33;15.67;;;;;24.55;34.92;101574.85;111019;1245;59246;-64
2023/10/04 01:15:55;;;;;;;;;16.25;14.00;;;;;24.55;34.91;101572.56;110979;1248;55410;-63
2023/10/04 01:18:23;;;;;;;;;13.50;12.25;;;;;24.55;34.92;101575.22;110785;1244;50217;-63
2023/10/04 01:20:51;;;;;;;;;13.50;12.50;;;;;24.55;34.93;101570.77;110871;1247;45391;-63
2023/10/04 01:23:18;;;;;;;;;14.75;13.00;;;;;24.54;34.93;101571.95;110735;1246;58002;-64
2023/10/04 01:25:46;;;;;;;;;17.50;13.00;;;;;24.52;34.95;101573.57;110985;1245;59623;-63
2023/10/04 01:28:18;;;;;;;;;17.75;16.00;;;;;24.51;34.98;101568.36;110959;1244;55811;-63
2023/10/04 01:30:47;;;;;;;;;13.00;11.25;;;;;24.49;35.01;101567.35;111157;1244;50603;-63
2023/10/04 01:33:15;;;;;;;;;14.25;13.50;;;;;24.47;35.02;101565.70;111219;1244;45520;-64
2023/10/04 01:35:49;;;;;;;;;13.75;12.00;;;;;24.48;35.02;101566.54;111188;1246;58155;-63
2023/10/04 01:38:16;;;;;;;;;15.00;12.00;;;;;24.48;35.03;101564.59;111191;1245;59215;-63
2023/10/04 01:40:47;;;;;;;;;16.75;13.25;;;;;24.48;35.04;101565.46;111209;1247;55108;-64
2023/10/04 01:43:17;;;;;;;;;13.25;12.00;;;;;24.47;35.06;101566.50;111082;1248;50210;-64
2023/10/04 01:45:48;;;;;;;;;16.50;12.00;;;;;24.47;35.07;101567.59;111045;1248;45831;-64
2023/10/04 01:48:17;;;;;;;;;13.00;12.75;;;;;24.47;35.06;101567.70;110823;1247;58703;-64
2023/10/04 01:50:46;;;;;;;;;15.00;13.00;;;;;24.46;35.06;101560.59;110902;1245;59504;-64
2023/10/04 01:53:13;;;;;;;;;11.00;11.00;;;;;24.46;35.09;101556.70;110837;1250;55251;-65
2023/10/04 01:55:40;;;;;;;;;14.50;13.00;;;;;24.46;35.09;101554.55;110677;1251;50100;-65
2023/10/04 01:58:08;;;;;;;;;15.00;12.00;;;;;24.45;35.08;101552.10;110792;1248;45174;-64
2023/10/04 02:00:36;;;;;;;;;14.00;13.00;;;;;24.44;35.09;101545.40;110988;1250;58256;-68
2023/10/04 02:03:03;;;;;;;;;17.00;14.00;;;;;24.44;35.11;101545.64;111030;1246;59001;-65
2023/10/04 02:05:37;;;;;;;;;16.00;12.75;;;;;24.43;35.12;101542.65;110984;1246;54586;-63
2023/10/04 02:08:07;;;;;;;;;16.33;13.33;;;;;24.42;35.12;101540.06;111173;1247;50544;-69
2023/10/04 02:10:35;;;;;;;;;14.00;13.00;;;;;24.43;35.14;101539.57;111241;1244;45118;-64
2023/10/04 02:13:17;;;;;;;;;15.25;13.00;;;;;24.45;35.08;101539.72;111150;1243;58244;-63
2023/10/04 02:15:48;;;;;;;;;13.25;12.50;;;;;24.45;35.06;101539.38;111089;1245;58457;-64
2023/10/04 02:18:15;;;;;;;;;14.25;13.75;;;;;24.43;35.09;101534.71;110908;1244;56728;-63
2023/10/04 02:20:46;;;;;;;;;16.00;12.75;;;;;24.42;35.10;101539.35;111112;1247;49639;-63
2023/10/04 02:23:13;;;;;;;;;19.00;14.00;;;;;24.42;35.14;101542.84;110990;1248;45620;-65
2023/10/04 02:25:40;;;;;;;;;12.25;11.00;;;;;24.42;35.11;101540.09;111062;1245;57612;-64
2023/10/04 02:28:11;;;;;;;;;13.50;13.25;;;;;24.41;35.12;101537.37;111015;1243;59117;-63
2023/10/04 02:30:38;;;;;;;;;17.25;14.00;;;;;24.40;35.17;101540.23;110961;1249;54330;-62
2023/10/04 02:33:11;;;;;;;;;15.00;14.00;;;;;24.38;35.19;101535.35;111120;1244;50065;-63
2023/10/04 02:35:43;;;;;;;;;14.00;13.50;;;;;24.38;35.22;101536.34;111045;1245;45962;-63
2023/10/04 02:38:26;;;;;;;;;14.00;13.25;;;;;24.39;35.18;101537.58;111117;1247;58331;-62
2023/10/04 02:40:54;;;;;;;;;13.50;12.25;;;;;24.40;35.17;101531.71;111268;1244;60091;-64
2023/10/04 02:43:23;;;;;;;;;13.00;12.00;;;;;24.39;35.17;101531.96;111170;1248;54454;-62
2023/10/04 02:45:52;;;;;;;;;15.00;14.00;;;;;24.39;35.19;101532.17;110892;1244;50524;-62
2023/10/04 02:48:20;;;;;;;;;15.00;11.67;;;;;24.40;35.16;101530.52;110852;1248;45979;-63
2023/10/04 02:50:47;;;;;;;;;16.25;14.25;;;;;24.39;35.17;101529.80;110804;1247;58004;-64
2023/10/04 02:53:16;;;;;;;;;15.50;13.75;;;;;24.38;35.21;101529.86;110856;1244;59861;-64
2023/10/04 02:55:44;;;;;;;;;17.50;13.00;;;;;24.37;35.24;101531.93;110886;1248;55362;-64
2023/10/04 02:58:16;;;;;;;;;16.00;14.00;;;;;24.36;35.23;101527.80;110900;1250;50422;-63
2023/10/04 03:00:46;;;;;;;;;17.50;15.00;;;;;24.38;35.23;101525.70;110980;1247;46064;-64
2023/10/04 03:03:13;;;;;;;;;13.75;11.75;;;;;24.37;35.22;101526.13;110908;1244;57961;-63
2023/10/04 03:05:41;;;;;;;;;16.00;14.00;;;;;24.37;35.24;101522.74;111168;1243;58281;-63
2023/10/04 03:08:08;;;;;;;;;15.00;14.00;;;;;24.35;35.27;101525.78;111066;1247;54477;-63
2023/10/04 03:10:37;;;;;;;;;16.50;14.00;;;;;24.33;35.28;101525.84;110698;1250;50662;-70
2023/10/04 03:13:19;;;;;;;;;16.00;13.00;;;;;24.32;35.30;101523.98;110823;1244;45153;-70
2023/10/04 03:15:47;;;;;;;;;16.00;14.00;;;;;24.32;35.32;101524.73;110902;1248;57849;-64
2023/10/04 03:18:15;;;;;;;;;15.33;14.00;;;;;24.32;35.33;101524.00;110860;1247;58345;-70
2023/10/04 03:20:54;;;;;;;;;12.33;12.00;;;;;24.31;35.34;101519.25;111133;1245;54319;-70
2023/10/04 03:23:25;;;;;;;;;16.75;15.00;;;;;24.30;35.38;101521.34;111127;1247;49661;-70
2023/10/04 03:25:53;;;;;;;;;14.50;13.50;;;;;24.31;35.37;101519.13;110902;1246;46224;-64
2023/10/04 03:28:26;;;;;;;;;16.50;13.75;;;;;24.31;35.38;101520.24;111087;1246;57981;-70
2023/10/04 03:30:54;;;;;;;;;15.00;13.75;;;;;24.30;35.35;101516.53;111056;1243;58276;-63
2023/10/04 03:33:20;;;;;;;;;13.00;12.00;;;;;24.28;35.41;101514.98;111096;1248;55202;-70
2023/10/04 03:35:48;;;;;;;;;14.33;12.33;;;;;24.28;35.44;101511.97;111101;1248;49911;-67
2023/10/04 03:38:15;;;;;;;;;16.00;14.00;;;;;24.27;35.47;101512.19;110837;1250;45949;-69
2023/10/04 03:40:43;;;;;;;;;15.25;14.25;;;;;24.26;35.48;101511.59;111119;1245;58036;-70
2023/10/04 03:43:11;;;;;;;;;16.00;14.00;;;;;24.24;35.51;101504.80;110958;1242;58384;-68
2023/10/04 03:45:40;;;;;;;;;14.00;13.00;;;;;24.23;35.54;101503.14;110951;1247;55421;-70
2023/10/04 03:48:26;;;;;;;;;14.75;12.75;;;;;24.23;35.55;101504.49;110864;1248;50157;-70
2023/10/04 03:50:53;;;;;;;;;14.33;12.33;;;;;24.22;35.58;101503.69;111156;1244;45768;-67
2023/10/04 03:53:20;;;;;;;;;13.25;11.75;;;;;24.23;35.56;101502.42;111157;1246;58284;-70
2023/10/04 03:55:47;;;;;;;;;16.50;13.50;;;;;24.24;35.53;101502.38;110812;1246;58501;-70
2023/10/04 03:58:19;;;;;;;;;14.75;13.25;;;;;24.23;35.56;101501.09;110964;1243;54537;-69
2023/10/04 04:00:46;;;;;;;;;16.67;14.33;;;;;24.23;35.58;101499.96;110840;1247;49970;-64
2023/10/04 04:03:13;;;;;;;;;15.00;13.33;;;;;24.24;35.56;101494.73;111137;1250;46600;-64
2023/10/04 04:05:42;;;;;;;;;13.00;10.50;;;;;24.25;35.57;101497.16;111205;1246;58479;-64
2023/10/04 04:08:10;;;;;;;;;16.75;14.00;;;;;24.28;35.54;101492.49;110986;1245;58377;-67
2023/10/04 04:10:37;;;;;;;;;14.75;13.50;;;;;24.29;35.53;101491.38;111288;1246;54957;-70
2023/10/04 04:13:05;;;;;;;;;14.50;12.50;;;;;24.31;35.48;101492.63;111515;1246;49869;-64
2023/10/04 04:15:35;;;;;;;;;13.67;11.33;;;;;24.32;35.42;101488.73;110921;1247;45629;-71
2023/10/04 04:18:06;;;;;;;;;16.00;14.25;;;;;24.30;35.45;101493.08;110823;1246;58160;-70
2023/10/04 04:20:35;;;;;;;;;14.00;13.00;;;;;24.29;35.48;101492.96;111080;1241;59334;-71
2023/10/04 04:23:05;;;;;;;;;11.67;11.00;;;;;24.27;35.52;101490.59;110963;1248;54528;-70
2023/10/04 04:25:33;;;;;;;;;14.00;13.00;;;;;24.26;35.53;101487.70;110907;1250;49769;-63
2023/10/04 04:28:01;;;;;;;;;15.50;13.50;;;;;24.25;35.54;101485.83;111184;1246;46071;-64
2023/10/04 04:30:31;;;;;;;;;15.00;12.25;;;;;24.25;35.55;101487.08;110677;1248;57727;-63
2023/10/04 04:32:58;;;;;;;;;15.00;14.00;;;;;24.25;35.56;101485.83;110836;1248;58630;-64
2023/10/04 04:38:24;;;;;;;;;15.25;13.50;;;;;24.25;35.56;101491.23;110907;1245;49930;-64
2023/10/04 04:40:56;;;;;;;;;15.00;12.00;;;;;24.25;35.58;101489.47;110679;1247;45965;-69
2023/10/04 04:43:36;;;;;;;;;12.00;10.75;;;;;24.25;35.58;101495.58;111004;1244;58208;-64
2023/10/04 04:46:12;;;;;;;;;14.50;13.00;;;;;24.25;35.59;101496.26;111077;1248;59298;-70
2023/10/04 04:48:40;;;;;;;;;11.67;10.67;;;;;24.26;35.60;101496.67;110511;1247;54493;-69
2023/10/04 04:53:49;;;;;;;;;14.00;12.50;;;;;24.28;35.59;101500.77;110833;1248;45395;-69
2023/10/04 04:56:18;;;;;;;;;14.00;13.00;;;;;24.29;35.59;101505.48;110823;1251;57856;-63
2023/10/04 04:58:49;;;;;;;;;14.25;12.75;;;;;24.28;35.60;101506.29;110811;1248;58800;-65
2023/10/04 05:01:16;;;;;;;;;15.25;13.50;;;;;24.28;35.62;101510.27;110909;1247;54407;-69
2023/10/04 05:03:45;;;;;;;;;15.25;13.25;;;;;24.29;35.64;101510.66;110888;1251;50224;-71
2023/10/04 05:06:32;;;;;;;;;15.00;14.00;;;;;24.33;35.58;101507.16;111036;1248;46946;-64
2023/10/04 05:08:58;;;;;;;;;12.00;10.50;;;;;24.37;35.53;101511.87;110868;1249;57812;-65
2023/10/04 05:11:25;;;;;;;;;18.50;14.00;;;;;24.43;35.44;101514.20;110796;1247;59105;-64
2023/10/04 05:13:56;;;;;;;;;12.25;11.25;;;;;24.44;35.38;101512.08;110740;1247;55799;-69
2023/10/04 05:16:25;;;;;;;;;14.50;11.50;;;;;24.43;35.39;101512.83;110911;1250;50300;-64
2023/10/04 05:18:53;;;;;;;;;14.67;13.33;;;;;24.41;35.44;101510.84;110880;1249;45344;-63
2023/10/04 05:21:20;;;;;;;;;16.00;14.00;;;;;24.40;35.46;101513.17;111132;1248;59103;-65
2023/10/04 05:23:47;;;;;;;;;12.00;10.50;;;;;24.40;35.47;101514.64;110755;1246;59290;-65
2023/10/04 05:26:13;;;;;;;;;12.00;10.25;;;;;24.39;35.49;101514.85;110750;1247;56046;-64
2023/10/04 05:28:40;;;;;;;;;18.00;14.00;;;;;24.39;35.53;101514.88;111102;1245;50555;-66
2023/10/04 05:31:08;;;;;;;;;12.50;11.25;;;;;24.40;35.58;101518.17;111358;1246;45250;-65
2023/10/04 05:33:35;;;;;;;;;14.00;13.00;;;;;24.43;35.57;101520.91;111094;1241;58229;-66
2023/10/04 05:36:03;;;;;;;;;17.00;16.00;;;;;24.46;35.48;101521.61;111161;1243;58401;-65
2023/10/04 05:38:32;;;;;;;;;18.33;16.67;;;;;24.32;35.09;101522.57;110949;1247;55150;-67
2023/10/04 05:41:00;;;;;;;;;21.00;17.75;;;;;24.11;35.26;101520.34;110869;1241;49883;-66
2023/10/04 05:43:29;;;;;;;;;18.00;17.50;;;;;23.84;35.44;101520.70;111087;1243;46035;-65
2023/10/04 05:45:56;;;;;;;;;18.75;18.00;;;;;23.67;35.78;101521.34;110705;1244;57538;-64
2023/10/04 05:48:23;;;;;;;;;21.00;18.50;;;;;23.58;35.82;101523.36;111033;1246;58949;-66
2023/10/04 05:50:50;;;;;;;;;33.75;29.50;;;;;23.46;35.95;101521.50;110761;1246;54983;-66
2023/10/04 05:53:20;;;;;;;;;32.75;27.00;;;;;23.41;36.09;101524.49;111317;1246;50998;-67
2023/10/04 05:55:51;;;;;;;;;34.00;25.00;;;;;23.29;36.16;101529.25;110822;1248;46545;-63
2023/10/04 05:58:18;;;;;;;;;26.75;21.00;;;;;23.07;36.60;101527.92;111097;1248;57497;-65
2023/10/04 06:00:51;;;;;;;;;27.00;21.50;;;;;23.01;37.01;101525.74;110677;1247;59900;-68
2023/10/04 06:03:18;;;;;;;;;28.75;24.00;;;;;23.03;37.05;101529.81;110855;1250;55988;-66
2023/10/04 06:05:45;;;;;;;;;26.00;20.25;;;;;22.87;37.26;101536.77;111369;1246;50626;-72
2023/10/04 06:08:23;;;;;;;;;23.33;21.00;;;;;22.65;37.65;101535.57;111436;1243;46141;-70
2023/10/04 06:10:53;;;;;;;;;23.67;21.33;;;;;22.60;37.99;101530.52;111300;1244;57507;-69
2023/10/04 06:13:22;;;;;;;;;22.00;20.67;;;;;22.75;37.98;101535.77;110753;1247;58753;-73
2023/10/04 06:15:50;;;;;;;;;24.25;20.00;;;;;22.86;37.84;101535.63;111181;1246;54831;-65
2023/10/04 06:18:17;;;;;;;;;24.33;19.33;;;;;22.91;37.80;101537.30;111154;1247;49957;-65
2023/10/04 06:20:45;;;;;;;;;24.75;21.50;;;;;22.94;37.78;101533.95;110930;1251;46238;-65
2023/10/04 06:23:14;;;;;;;;;23.75;19.75;;;;;22.86;37.83;101534.40;111050;1246;58460;-70
2023/10/04 06:25:46;;;;;;;;;23.00;18.00;;;;;22.77;38.19;101534.11;110863;1248;59306;-64
2023/10/04 06:28:14;;;;;;;;;21.25;18.00;;;;;22.80;38.00;101538.45;110803;1250;55916;-64
2023/10/04 06:30:42;;;;;;;;;20.67;17.33;;;;;22.88;37.76;101536.45;110944;1244;50595;-64
2023/10/04 06:33:11;;;;;;;;;23.50;22.00;;;;;22.96;37.61;101540.16;111064;1250;45552;-66
2023/10/04 06:35:41;;;;;;;;;32.00;27.50;;;;;23.03;37.38;101537.27;111124;1242;58698;-65
2023/10/04 06:38:09;;;;;;;;;32.75;28.75;;;;;23.08;37.29;101534.79;111037;1247;59037;-65
2023/10/04 06:40:36;;;;;;;;;30.00;24.50;;;;;23.13;37.04;101536.71;110981;1244;54439;-65
2023/10/04 06:43:06;;;;;;;;;30.25;28.50;;;;;23.09;37.13;101538.70;110723;1248;280015;-65
2023/10/04 06:45:34;;;;;;;;;32.00;26.67;;;;;23.17;37.08;101540.86;111008;1244;46143;-66
2023/10/04 06:48:03;;;;;;;;;33.00;28.33;;;;;23.27;36.69;101544.40;110903;1246;57602;-65
2023/10/04 06:50:35;;;;;;;;;26.67;20.67;;;;;23.28;36.70;101547.37;111202;1245;60073;-65
2023/10/04 06:53:04;;;;;;;;;27.50;25.00;;;;;23.34;36.59;101547.94;111069;1247;55868;-64
2023/10/04 06:55:32;;;;;;;;;26.33;24.33;;;;;23.42;36.32;101547.90;111029;1247;50067;-65
2023/10/04 06:58:03;;;;;;;;;20.33;18.67;;;;;23.49;36.12;101547.43;111059;1247;45543;-63
2023/10/04 07:00:36;;;;;;;;;20.67;18.33;;;;;23.58;35.90;101547.61;111064;1243;58122;-65
2023/10/04 07:03:03;;;;;;;;;22.00;19.00;;;;;23.63;35.71;101550.05;111085;1246;58775;-64
2023/10/04 07:05:39;;;;;;;;;21.00;19.00;;;;;23.67;35.62;101551.39;111028;1241;56304;-65
2023/10/04 07:08:08;;;;;;;;;22.25;20.75;;;;;23.71;35.59;101550.30;111054;1243;50489;-64
2023/10/04 07:10:36;;;;;;;;;23.00;20.00;;;;;23.76;35.50;101548.33;110834;1241;45916;-64
2023/10/04 07:13:07;;;;;;;;;21.75;20.00;;;;;23.81;35.45;101546.88;111081;1243;59305;-65
2023/10/04 07:15:39;;;;;;;;;21.50;17.00;;;;;23.89;35.33;101545.84;110851;1245;60133;-64
2023/10/04 07:18:10;;;;;;;;;19.00;18.00;;;;;23.93;35.19;101551.48;110724;1246;54690;-64
2023/10/04 07:20:38;;;;;;;;;23.00;20.00;;;;;24.00;35.09;101549.42;110907;1248;50047;-64
2023/10/04 07:23:09;;;;;;;;;20.00;17.33;;;;;24.08;35.01;101555.05;110969;1244;45215;-65
2023/10/04 07:25:39;;;;;;;;;22.00;19.00;;;;;24.14;34.58;101559.15;110995;1245;57781;-64
2023/10/04 07:28:09;;;;;;;;;24.75;22.50;;;;;24.16;34.55;101567.23;111018;1242;58901;-65
2023/10/04 07:30:36;;;;;;;;;24.75;21.75;;;;;24.19;34.39;101568.33;111000;1244;55631;-64
2023/10/04 07:33:03;;;;;;;;;23.00;21.00;;;;;24.26;34.23;101574.59;111018;1245;49812;-65
2023/10/04 07:35:32;;;;;;;;;23.00;20.00;;;;;24.34;34.21;101570.23;110995;1244;45239;-65
2023/10/04 07:37:59;;;;;;;;;20.00;17.00;;;;;24.41;33.99;101572.24;110922;1248;58059;-64
2023/10/04 07:40:30;;;;;;;;;20.00;18.00;;;;;24.45;33.79;101573.57;110953;1248;59438;-65
2023/10/04 07:42:59;;;;;;;;;22.25;20.00;;;;;24.49;33.66;101577.21;110960;1245;54294;-65
2023/10/04 07:45:29;;;;;;;;;23.00;19.00;;;;;24.52;33.55;101583.73;110978;1244;49919;-65
2023/10/04 07:47:58;;;;;;;;;18.75;17.75;;;;;24.58;33.44;101582.97;110866;1248;45756;-64
2023/10/04 07:50:28;;;;;;;;;21.00;20.00;;;;;24.64;33.41;101582.89;110820;1247;59293;-65
2023/10/04 07:52:59;;;;;;;;;24.00;22.00;;;;;24.69;33.47;101579.36;111067;1242;58560;-66
2023/10/04 07:55:26;;;;;;;;;22.50;19.25;;;;;24.78;33.24;101571.60;110984;1248;55080;-65
2023/10/04 07:57:58;;;;;;;;;21.33;18.33;;;;;24.84;33.04;101567.09;110986;1248;49817;-64
2023/10/04 08:00:26;;;;;;;;;19.75;19.25;;;;;24.87;33.07;101563.20;111062;1245;46840;-65
2023/10/04 08:02:53;;;;;;;;;23.00;18.50;;;;;24.96;33.00;101560.96;110921;1244;58137;-64
2023/10/04 08:05:23;;;;;;;;;20.00;16.33;;;;;25.04;32.87;101560.48;111018;1248;60154;-63
2023/10/04 08:07:53;;;;;;;;;22.00;20.00;;;;;25.10;32.77;101563.70;111125;1243;54834;-64
2023/10/04 08:10:25;;;;;;;;;21.25;20.25;;;;;25.20;32.55;101567.10;110929;1247;51190;-65
2023/10/04 08:12:54;;;;;;;;;20.00;18.75;;;;;25.27;32.29;101567.38;111025;1248;45534;-65
2023/10/04 08:15:27;;;;;;;;;24.67;20.33;;;;;25.33;32.17;101561.92;110840;1244;58450;-65
2023/10/04 08:17:55;;;;;;;;;18.75;17.00;;;;;25.32;32.04;101556.92;111044;1245;59055;-65
2023/10/04 08:20:24;;;;;;;;;21.00;19.00;;;;;25.41;32.00;101558.86;111162;1243;54293;-65
2023/10/04 08:22:51;;;;;;;;;17.00;16.00;;;;;25.55;31.86;101559.55;110750;1249;50546;-64
2023/10/04 08:25:19;;;;;;;;;21.00;19.25;;;;;25.67;31.61;101559.05;110953;1248;45244;-65
2023/10/04 08:27:50;;;;;;;;;20.00;16.25;;;;;25.72;31.47;101555.79;111130;1245;58702;-65
2023/10/04 08:30:18;;;;;;;;;21.00;20.25;;;;;25.74;31.36;101553.21;110730;1244;58858;-63
2023/10/04 08:32:48;;;;;;;;;19.50;16.00;;;;;25.79;31.19;101549.50;110926;1248;56207;-65
2023/10/04 08:35:28;;;;;;;;;20.25;17.50;;;;;25.86;31.19;101544.01;110837;1241;51033;-64
2023/10/04 08:37:57;;;;;;;;;20.00;16.25;;;;;25.97;31.00;101544.38;110967;1248;45988;-66
2023/10/04 08:40:28;;;;;;;;;18.75;18.00;;;;;26.04;30.88;101546.54;110956;1244;59062;-65
2023/10/04 08:42:57;;;;;;;;;22.75;20.50;;;;;26.16;30.68;101548.04;110749;1245;60260;-65
2023/10/04 08:45:33;;;;;;;;;20.50;18.25;;;;;26.26;30.54;101546.24;110831;1250;55194;-64
2023/10/04 08:48:03;;;;;;;;;21.00;19.00;;;;;26.34;30.35;101542.62;111031;1244;50287;-63
2023/10/04 08:50:34;;;;;;;;;18.50;17.00;;;;;26.45;30.20;101542.23;111088;1244;45800;-64
2023/10/04 08:53:32;;;;;;;;;23.75;18.25;;;;;26.58;29.99;101542.19;111069;1248;58772;-64
2023/10/04 08:56:18;;;;;;;;;22.00;19.00;;;;;26.67;29.83;101541.64;111099;1246;59835;-63
2023/10/04 08:58:47;;;;;;;;;17.50;15.50;;;;;26.79;29.78;101539.44;110780;1245;54731;-62
2023/10/04 09:01:20;;;;;;;;;21.00;19.00;;;;;27.05;29.44;101537.54;111046;1244;50547;-63
2023/10/04 09:03:50;;;;;;;;;19.00;16.00;;;;;27.44;28.87;101538.41;111084;1248;45567;-63
2023/10/04 09:06:17;;;;;;;;;22.75;19.75;;;;;27.97;27.93;101537.67;110993;1247;58075;-62
2023/10/04 09:08:46;;;;;;;;;21.25;19.00;;;;;28.72;26.84;101536.13;111093;1249;59543;-63
2023/10/04 09:11:15;;;;;;;;;20.00;18.00;;;;;29.73;25.51;101534.98;111110;1244;55603;-64
2023/10/04 09:13:47;;;;;;;;;20.50;18.25;;;;;31.03;23.78;101538.52;110902;1248;49932;-62
2023/10/04 09:16:25;;;;;;;;;22.25;19.75;;;;;32.52;22.10;101532.90;111119;1247;45743;-63
2023/10/04 09:19:08;;;;;;;;;20.67;19.00;;;;;33.91;20.41;101533.33;111160;1243;57958;-62
2023/10/04 09:21:38;;;;;;;;;18.33;16.33;;;;;34.89;19.13;101537.36;110997;1247;59128;-63
2023/10/04 09:24:16;;;;;;;;;19.00;17.00;;;;;35.60;18.45;101542.96;110743;1248;54812;-61
2023/10/04 09:27:01;;;;;;;;;20.00;18.33;;;;;36.23;17.77;101541.30;111009;1244;50474;-62
2023/10/04 09:29:36;;;;;;;;;21.50;17.00;;;;;36.64;17.25;101546.67;110969;1243;45688;-63
2023/10/04 09:32:05;;;;;;;;;22.00;19.33;;;;;36.88;17.03;101546.29;110750;1249;57640;-61
2023/10/04 09:34:34;;;;;;;;;20.00;17.00;;;;;37.26;16.71;101548.08;111008;1247;59820;-62
2023/10/04 09:37:18;;;;;;;;;23.25;19.25;;;;;37.55;16.43;101543.38;110989;1245;55504;-62
2023/10/04 09:39:45;;;;;;;;;21.50;20.00;;;;;37.81;16.03;101543.62;111120;1244;50015;-63
2023/10/04 09:42:14;;;;;;;;;20.50;18.25;;;;;37.95;16.00;101542.20;111004;1244;45590;-62
2023/10/04 09:44:44;;;;;;;;;19.00;17.50;;;;;38.17;15.84;101540.09;110728;1244;58402;-63
2023/10/04 09:47:10;;;;;;;;;20.00;18.33;;;;;38.16;15.84;101541.42;110962;1243;59559;-61
2023/10/04 09:49:48;;;;;;;;;18.25;17.00;;;;;37.44;16.35;101537.63;111006;1244;55781;-62
2023/10/04 09:52:16;;;;;;;;;20.00;17.67;;;;;36.11;17.57;101537.59;111031;1247;50370;-62
2023/10/04 09:54:48;;;;;;;;;19.00;18.00;;;;;34.93;18.78;101532.52;111025;1247;46863;-61
2023/10/04 09:57:18;;;;;;;;;16.00;14.33;;;;;34.48;19.31;101533.10;111069;1244;58267;-61
2023/10/04 09:59:48;;;;;;;;;19.33;16.33;;;;;33.50;20.32;101529.10;110997;1246;59049;-62
2023/10/04 10:02:18;;;;;;;;;23.00;21.00;;;;;32.48;21.33;101525.92;110925;1244;56197;-63
2023/10/04 10:04:49;;;;;;;;;18.33;17.67;;;;;31.87;22.14;101528.45;110910;1247;49583;-63
2023/10/04 10:07:18;;;;;;;;;18.75;18.25;;;;;32.27;21.77;101527.95;110927;1250;45816;-63
2023/10/04 10:10:01;;;;;;;;;17.50;16.00;;;;;32.36;21.73;101525.05;111044;1244;58803;-61
2023/10/04 10:12:35;;;;;;;;;19.67;17.00;;;;;33.22;20.81;101518.45;110931;1243;59796;-62
2023/10/04 10:15:04;;;;;;;;;18.33;17.33;;;;;33.67;20.24;101519.11;111029;1248;54848;-62
2023/10/04 10:17:33;;;;;;;;;21.50;19.50;;;;;33.18;20.70;101517.85;110785;1249;50467;-63
2023/10/04 10:20:02;;;;;;;;;16.50;14.75;;;;;32.35;21.61;101515.01;110732;1248;45494;-63
2023/10/04 10:22:29;;;;;;;;;21.50;19.00;;;;;31.29;22.81;101516.48;110962;1248;57887;-63
2023/10/04 10:24:56;;;;;;;;;21.00;18.00;;;;;30.43;23.84;101504.15;110684;1244;60296;-62
2023/10/04 10:27:31;;;;;;;;;18.00;16.00;;;;;29.77;24.68;101504.05;111065;1245;55297;-62
2023/10/04 10:30:02;;;;;;;;;19.00;18.00;;;;;29.27;25.40;101493.36;111217;1246;50586;-62
2023/10/04 10:32:29;;;;;;;;;17.00;15.33;;;;;28.95;25.87;101494.29;111111;1244;45195;-63
2023/10/04 10:35:00;;;;;;;;;20.00;17.75;;;;;28.72;26.19;101492.71;111081;1247;58230;-62
2023/10/04 10:37:27;;;;;;;;;20.00;17.00;;;;;28.52;26.51;101489.21;110773;1250;58300;-63
2023/10/04 10:39:56;;;;;;;;;19.50;18.00;;;;;28.39;26.75;101486.99;110785;1247;55898;-62
2023/10/04 10:42:23;;;;;;;;;18.75;17.25;;;;;28.27;27.00;101487.55;110724;1246;50479;-62
2023/10/04 10:45:11;;;;;;;;;19.75;18.00;;;;;28.16;27.10;101486.70;111064;1248;45745;-62
2023/10/04 10:47:37;;;;;;;;;17.50;15.00;;;;;28.04;27.40;101485.42;111011;1244;59013;-62
2023/10/04 10:50:37;;;;;;;;;26.00;21.25;;;;;27.98;27.48;101485.00;110918;1246;58879;-62
2023/10/04 10:53:10;;;;;;;;;18.25;16.50;;;;;27.83;27.73;101486.03;110992;1247;55050;-63
2023/10/04 10:55:39;;;;;;;;;24.50;18.75;;;;;27.75;27.88;101483.02;111081;1244;49790;-63
2023/10/04 10:58:10;;;;;;;;;16.25;15.50;;;;;27.68;28.01;101486.00;110805;1245;45578;-63
2023/10/04 11:00:37;;;;;;;;;15.67;14.33;;;;;27.61;28.16;101485.20;111041;1243;58677;-63
2023/10/04 11:03:09;;;;;;;;;19.75;17.75;;;;;27.54;28.28;101481.88;111033;1248;59358;-63
2023/10/04 11:05:35;;;;;;;;;17.75;17.00;;;;;27.47;28.36;101487.61;111031;1245;54762;-62
2023/10/04 11:08:08;;;;;;;;;19.00;18.25;;;;;27.41;28.50;101487.33;110719;1244;50010;-62
2023/10/04 11:10:39;;;;;;;;;17.00;16.00;;;;;27.36;28.69;101484.27;111188;1242;45717;-62
2023/10/04 11:13:17;;;;;;;;;16.00;14.00;;;;;27.32;28.79;101480.00;110943;1244;57983;-63
2023/10/04 11:15:46;;;;;;;;;17.50;16.50;;;;;27.29;28.77;101483.09;110950;1247;58426;-63
2023/10/04 11:18:15;;;;;;;;;17.50;16.00;;;;;27.28;28.74;101485.61;111248;1241;55129;-63
2023/10/04 11:20:43;;;;;;;;;16.75;15.75;;;;;27.27;28.72;101490.58;110696;1247;49679;-63